Time,TemperatureF,DewpointF,PressureIn,WindDirection,WindDirectionDegrees,WindSpeedMPH,WindSpeedGustMPH,Humidity,HourlyPrecipIn,Conditions,Clouds,dailyrainin,SoftwareType,DateUTC
2013-07-27 00:01:00,64.8,62.4,29.88,SE,140,3.0,7.0,92,0.00,,,0.23,meteohub,2013-07-27 04:01:00,
2013-07-27 00:02:00,64.8,62.4,29.88,South,182,4.0,7.0,92,0.00,,,0.23,meteohub,2013-07-27 04:02:00,
2013-07-27 00:03:00,64.8,62.4,29.88,SSE,166,4.0,7.0,92,0.00,,,0.23,meteohub,2013-07-27 04:03:00,
2013-07-27 00:08:00,64.6,62.2,29.88,SE,144,5.0,7.0,92,0.00,,,0.23,meteohub,2013-07-27 04:08:00,
2013-07-27 00:12:00,64.6,62.2,29.88,SSW,197,4.0,7.0,92,0.00,,,0.23,meteohub,2013-07-27 04:12:00,
2013-07-27 00:17:00,64.6,62.2,29.88,SSE,148,5.0,7.0,92,0.00,,,0.00,meteohub,2013-07-27 04:17:00,
2013-07-27 00:22:00,64.4,62.1,29.88,SSE,148,5.0,9.0,92,0.00,,,0.00,meteohub,2013-07-27 04:22:00,
2013-07-27 00:28:00,64.2,62.2,29.88,SE,131,3.0,9.0,93,0.00,,,0.00,meteohub,2013-07-27 04:28:00,
2013-07-27 00:33:00,64.2,62.2,29.88,South,172,4.0,9.0,93,0.00,,,0.00,meteohub,2013-07-27 04:33:00,
2013-07-27 00:38:00,64.0,62.1,29.88,South,181,3.0,9.0,93,0.00,,,0.00,meteohub,2013-07-27 04:38:00,
2013-07-27 00:43:00,63.9,61.9,29.88,South,184,3.0,9.0,93,0.00,,,0.00,meteohub,2013-07-27 04:43:00,
2013-07-27 00:49:00,63.7,61.7,29.87,South,186,7.0,7.0,93,0.00,,,0.00,meteohub,2013-07-27 04:49:00,
2013-07-27 00:54:00,63.7,61.9,29.87,SSW,200,4.0,7.0,94,0.00,,,0.00,meteohub,2013-07-27 04:54:00,
2013-07-27 00:59:00,63.9,62.1,29.87,SSE,158,6.0,7.0,94,0.00,,,0.00,meteohub,2013-07-27 04:59:00,
2013-07-27 01:04:00,63.9,62.1,29.86,SSE,160,4.0,7.0,94,0.00,,,0.00,meteohub,2013-07-27 05:04:00,
2013-07-27 01:09:00,63.9,62.1,29.86,ESE,103,3.0,7.0,94,0.00,,,0.00,meteohub,2013-07-27 05:09:00,
2013-07-27 01:15:00,63.9,62.1,29.86,SSE,152,3.0,8.0,94,0.00,,,0.00,meteohub,2013-07-27 05:15:00,
2013-07-27 01:20:00,64.0,62.2,29.87,South,174,5.0,8.0,94,0.00,,,0.00,meteohub,2013-07-27 05:20:00,
2013-07-27 01:25:00,64.0,62.2,29.87,SE,144,4.0,8.0,94,0.00,,,0.00,meteohub,2013-07-27 05:25:00,
2013-07-27 01:30:00,64.0,62.2,29.86,South,181,5.0,8.0,94,0.00,,,0.00,meteohub,2013-07-27 05:30:00,
2013-07-27 01:36:00,63.9,62.1,29.86,ESE,118,5.0,8.0,94,0.00,,,0.00,meteohub,2013-07-27 05:36:00,
2013-07-27 01:41:00,63.9,62.1,29.86,SSE,148,1.0,8.0,94,0.00,,,0.00,meteohub,2013-07-27 05:41:00,
2013-07-27 01:46:00,63.9,62.1,29.86,SSE,158,5.0,8.0,94,0.00,,,0.00,meteohub,2013-07-27 05:46:00,
2013-07-27 01:52:00,63.7,61.9,29.86,SE,142,3.0,9.0,94,0.00,,,0.00,meteohub,2013-07-27 05:52:00,
2013-07-27 01:57:00,63.7,61.9,29.85,SSE,155,6.0,9.0,94,0.00,,,0.00,meteohub,2013-07-27 05:57:00,
2013-07-27 02:02:00,63.7,61.9,29.85,SE,144,6.0,9.0,94,0.00,,,0.00,meteohub,2013-07-27 06:02:00,
2013-07-27 02:07:00,63.7,61.9,29.85,SSE,148,6.0,9.0,94,0.00,,,0.00,meteohub,2013-07-27 06:07:00,
2013-07-27 02:12:00,63.7,61.9,29.85,SSE,149,3.0,9.0,94,0.00,,,0.00,meteohub,2013-07-27 06:12:00,
2013-07-27 02:17:00,63.5,61.7,29.85,South,184,3.0,9.0,94,0.00,,,0.00,meteohub,2013-07-27 06:17:00,
2013-07-27 02:22:00,63.3,61.5,29.85,SSW,208,2.0,9.0,94,0.00,,,0.00,meteohub,2013-07-27 06:22:00,
2013-07-27 02:27:00,63.3,61.5,29.85,SW,221,5.0,9.0,94,0.00,,,0.00,meteohub,2013-07-27 06:27:00,
2013-07-27 02:32:00,63.3,61.9,29.85,SSE,155,6.0,7.0,95,0.00,,,0.00,meteohub,2013-07-27 06:32:00,
2013-07-27 02:38:00,63.3,61.9,29.85,South,172,6.0,7.0,95,0.00,,,0.00,meteohub,2013-07-27 06:38:00,
2013-07-27 02:43:00,63.5,62.1,29.85,SSE,152,3.0,7.0,95,0.00,,,0.00,meteohub,2013-07-27 06:43:00,
2013-07-27 02:48:00,63.7,62.2,29.85,South,173,5.0,7.0,95,0.00,,,0.00,meteohub,2013-07-27 06:48:00,
2013-07-27 02:54:00,63.7,62.2,29.84,SSW,205,3.0,9.0,95,0.00,,,0.00,meteohub,2013-07-27 06:54:00,
2013-07-27 02:59:00,63.7,62.2,29.84,South,169,4.0,9.0,95,0.00,,,0.00,meteohub,2013-07-27 06:59:00,
2013-07-27 03:04:00,63.7,62.2,29.84,SE,144,4.0,9.0,95,0.00,,,0.00,meteohub,2013-07-27 07:04:00,
2013-07-27 03:10:00,63.7,62.2,29.84,South,169,3.0,9.0,95,0.00,,,0.00,meteohub,2013-07-27 07:10:00,
2013-07-27 03:15:00,63.9,62.4,29.85,SSW,200,2.0,8.0,95,0.00,,,0.00,meteohub,2013-07-27 07:15:00,
2013-07-27 03:20:00,63.9,62.4,29.84,SSW,203,5.0,8.0,95,0.00,,,0.00,meteohub,2013-07-27 07:20:00,
2013-07-27 03:26:00,63.9,62.4,29.84,SW,229,4.0,8.0,95,0.00,,,0.00,meteohub,2013-07-27 07:26:00,
2013-07-27 03:31:00,63.9,62.4,29.84,SW,228,2.0,9.0,95,0.00,,,0.00,meteohub,2013-07-27 07:31:00,
2013-07-27 03:36:00,63.9,62.4,29.84,SSW,208,3.0,9.0,95,0.00,,,0.00,meteohub,2013-07-27 07:36:00,
2013-07-27 03:41:00,63.9,62.4,29.84,South,191,2.0,9.0,95,0.00,,,0.00,meteohub,2013-07-27 07:41:00,
2013-07-27 03:47:00,64.0,62.6,29.85,SSW,201,3.0,9.0,95,0.00,,,0.00,meteohub,2013-07-27 07:47:00,
2013-07-27 03:52:00,64.0,62.6,29.84,SW,217,3.0,6.0,95,0.00,,,0.00,meteohub,2013-07-27 07:52:00,
2013-07-27 03:57:00,64.0,62.6,29.84,SSW,200,2.0,6.0,95,0.00,,,0.00,meteohub,2013-07-27 07:57:00,
2013-07-27 04:02:00,64.0,62.6,29.84,SW,236,2.0,6.0,95,0.00,,,0.00,meteohub,2013-07-27 08:02:00,
2013-07-27 04:07:00,64.0,62.6,29.84,SSW,211,3.0,6.0,95,0.00,,,0.00,meteohub,2013-07-27 08:07:00,
2013-07-27 04:12:00,64.0,62.6,29.84,SSW,211,3.0,6.0,95,0.00,,,0.00,meteohub,2013-07-27 08:12:00,
2013-07-27 04:17:00,64.0,62.6,29.84,SSW,197,3.0,4.0,95,0.00,,,0.00,meteohub,2013-07-27 08:17:00,
2013-07-27 04:22:00,63.9,62.4,29.84,SSE,160,3.0,4.0,95,0.00,,,0.00,meteohub,2013-07-27 08:22:00,
2013-07-27 04:27:00,63.9,62.4,29.84,SSW,198,3.0,4.0,95,0.00,,,0.00,meteohub,2013-07-27 08:27:00,
2013-07-27 04:32:00,63.9,62.4,29.84,SSE,152,2.0,6.0,95,0.00,,,0.00,meteohub,2013-07-27 08:32:00,
2013-07-27 04:37:00,63.9,62.4,29.84,SSE,152,1.0,6.0,95,0.00,,,0.00,meteohub,2013-07-27 08:37:00,
2013-07-27 04:43:00,63.9,62.4,29.84,SSW,203,3.0,6.0,95,0.00,,,0.00,meteohub,2013-07-27 08:43:00,
2013-07-27 04:48:00,63.7,62.6,29.84,SSW,205,1.0,6.0,96,0.00,,,0.00,meteohub,2013-07-27 08:48:00,
2013-07-27 04:53:00,63.7,62.6,29.84,South,188,1.0,5.0,96,0.00,,,0.00,meteohub,2013-07-27 08:53:00,
2013-07-27 04:59:00,63.9,62.8,29.84,SSW,212,1.0,5.0,96,0.00,,,0.00,meteohub,2013-07-27 08:59:00,
2013-07-27 05:04:00,63.9,62.8,29.84,South,172,1.0,5.0,96,0.00,,,0.00,meteohub,2013-07-27 09:04:00,
2013-07-27 05:09:00,63.9,62.8,29.83,South,174,4.0,5.0,96,0.00,,,0.00,meteohub,2013-07-27 09:09:00,
2013-07-27 05:15:00,63.9,62.8,29.84,SSW,203,2.0,5.0,96,0.00,,,0.00,meteohub,2013-07-27 09:15:00,
2013-07-27 05:20:00,63.9,62.8,29.84,SW,221,2.0,5.0,96,0.00,,,0.00,meteohub,2013-07-27 09:20:00,
2013-07-27 05:25:00,63.7,62.6,29.84,SSW,197,0.0,5.0,96,0.00,,,0.00,meteohub,2013-07-27 09:25:00,
2013-07-27 05:30:00,63.7,62.6,29.84,SW,232,2.0,5.0,96,0.00,,,0.00,meteohub,2013-07-27 09:30:00,
2013-07-27 05:35:00,63.7,62.6,29.84,West,274,0.0,5.0,96,0.00,,,0.00,meteohub,2013-07-27 09:35:00,
2013-07-27 05:41:00,63.9,62.8,29.84,West,268,0.0,5.0,96,0.00,,,0.00,meteohub,2013-07-27 09:41:00,
2013-07-27 05:47:00,63.9,63.0,29.84,West,262,0.0,2.0,97,0.00,,,0.00,meteohub,2013-07-27 09:47:00,
2013-07-27 05:52:00,63.9,63.0,29.84,SSW,211,2.0,2.0,97,0.00,,,0.00,meteohub,2013-07-27 09:52:00,
2013-07-27 05:57:00,63.9,63.0,29.84,SW,225,3.0,3.0,97,0.00,,,0.00,meteohub,2013-07-27 09:57:00,
2013-07-27 06:02:00,63.9,63.0,29.84,WSW,242,2.0,2.0,97,0.00,,,0.00,meteohub,2013-07-27 10:02:00,
2013-07-27 06:08:00,63.7,62.8,29.84,SW,233,1.0,5.0,97,0.00,,,0.00,meteohub,2013-07-27 10:08:00,
2013-07-27 06:13:00,63.7,62.8,29.84,WSW,256,3.0,5.0,97,0.00,,,0.00,meteohub,2013-07-27 10:13:00,
2013-07-27 06:19:00,63.5,62.6,29.84,WSW,243,1.0,5.0,97,0.00,,,0.00,meteohub,2013-07-27 10:19:00,
2013-07-27 06:24:00,63.3,62.4,29.84,SW,232,1.0,5.0,97,0.00,,,0.00,meteohub,2013-07-27 10:24:00,
2013-07-27 06:29:00,63.3,62.4,29.84,SSW,197,2.0,5.0,97,0.00,,,0.00,meteohub,2013-07-27 10:29:00,
2013-07-27 06:34:00,63.3,62.4,29.85,SSW,204,2.0,5.0,97,0.00,,,0.00,meteohub,2013-07-27 10:34:00,
2013-07-27 06:40:00,63.1,62.2,29.84,SSW,200,2.0,5.0,97,0.00,,,0.00,meteohub,2013-07-27 10:40:00,
2013-07-27 06:45:00,63.3,62.4,29.85,SSW,210,1.0,5.0,97,0.00,,,0.00,meteohub,2013-07-27 10:45:00,
2013-07-27 06:50:00,63.3,62.4,29.85,SSW,208,2.0,5.0,97,0.00,,,0.00,meteohub,2013-07-27 10:50:00,
2013-07-27 06:56:00,63.3,62.4,29.85,SW,222,1.0,4.0,97,0.00,,,0.00,meteohub,2013-07-27 10:56:00,
2013-07-27 07:01:00,63.3,62.8,29.85,SW,228,1.0,4.0,98,0.00,,,0.00,meteohub,2013-07-27 11:01:00,
2013-07-27 07:06:00,63.5,63.0,29.85,SW,228,0.0,4.0,98,0.00,,,0.00,meteohub,2013-07-27 11:06:00,
2013-07-27 07:11:00,63.5,63.0,29.85,SW,226,0.0,4.0,98,0.00,,,0.00,meteohub,2013-07-27 11:11:00,
2013-07-27 07:17:00,63.7,63.1,29.85,SW,226,0.0,2.0,98,0.00,,,0.00,meteohub,2013-07-27 11:17:00,
2013-07-27 07:22:00,63.7,62.8,29.85,SW,226,0.0,2.0,97,0.00,,,0.00,meteohub,2013-07-27 11:22:00,
2013-07-27 07:27:00,63.7,62.8,29.85,SW,226,0.0,2.0,97,0.00,,,0.00,meteohub,2013-07-27 11:27:00,
2013-07-27 07:32:00,63.7,63.1,29.84,SW,226,0.0,1.0,98,0.00,,,0.00,meteohub,2013-07-27 11:32:00,
2013-07-27 07:37:00,63.7,63.1,29.84,SW,226,0.0,1.0,98,0.00,,,0.00,meteohub,2013-07-27 11:37:00,
2013-07-27 07:43:00,63.9,63.3,29.85,SW,226,0.0,1.0,98,0.00,,,0.00,meteohub,2013-07-27 11:43:00,
2013-07-27 07:48:00,63.9,63.3,29.85,SW,226,0.0,1.0,98,0.00,,,0.00,meteohub,2013-07-27 11:48:00,
2013-07-27 07:53:00,63.9,63.0,29.85,WNW,290,1.0,1.0,97,0.00,,,0.00,meteohub,2013-07-27 11:53:00,
2013-07-27 07:58:00,64.0,63.5,29.85,West,274,1.0,1.0,98,0.00,,,0.00,meteohub,2013-07-27 11:58:00,
2013-07-27 08:04:00,64.0,63.5,29.84,West,281,0.0,1.0,98,0.00,,,0.00,meteohub,2013-07-27 12:04:00,
2013-07-27 08:09:00,64.0,63.1,29.85,West,266,7.0,7.0,97,0.00,,,0.00,meteohub,2013-07-27 12:09:00,
2013-07-27 08:14:00,63.9,63.0,29.85,WNW,289,4.0,8.0,97,0.00,,,0.00,meteohub,2013-07-27 12:14:00,
2013-07-27 08:20:00,63.7,62.8,29.85,WNW,290,3.0,8.0,97,0.00,,,0.00,meteohub,2013-07-27 12:20:00,
2013-07-27 08:25:00,63.7,62.8,29.85,WNW,295,3.0,8.0,97,0.00,,,0.00,meteohub,2013-07-27 12:25:00,
2013-07-27 08:30:00,63.7,62.8,29.85,NW,307,2.0,7.0,97,0.00,,,0.00,meteohub,2013-07-27 12:30:00,
2013-07-27 08:35:00,63.7,62.8,29.85,WNW,290,2.0,7.0,97,0.00,,,0.00,meteohub,2013-07-27 12:35:00,
2013-07-27 08:41:00,63.9,63.0,29.85,NW,319,2.0,7.0,97,0.00,,,0.00,meteohub,2013-07-27 12:41:00,
2013-07-27 08:47:00,63.9,62.8,29.85,WNW,285,2.0,7.0,96,0.00,,,0.00,meteohub,2013-07-27 12:47:00,
2013-07-27 08:52:00,63.9,62.8,29.85,North,8,2.0,8.0,96,0.00,,,0.00,meteohub,2013-07-27 12:52:00,
2013-07-27 08:57:00,64.0,63.0,29.85,North,351,2.0,8.0,96,0.00,,,0.00,meteohub,2013-07-27 12:57:00,
2013-07-27 09:02:00,64.2,63.1,29.85,NW,304,3.0,8.0,96,0.00,,,0.00,meteohub,2013-07-27 13:02:00,
2013-07-27 09:07:00,64.2,63.1,29.85,NW,305,4.0,8.0,96,0.00,,,0.00,meteohub,2013-07-27 13:07:00,
2013-07-27 09:12:00,64.4,63.0,29.85,NNW,329,1.0,8.0,95,0.00,,,0.00,meteohub,2013-07-27 13:12:00,
2013-07-27 09:17:00,64.6,62.8,29.85,NW,324,4.0,7.0,94,0.00,,,0.00,meteohub,2013-07-27 13:17:00,
2013-07-27 09:22:00,64.6,62.8,29.85,NW,319,4.0,7.0,94,0.00,,,0.00,meteohub,2013-07-27 13:22:00,
2013-07-27 09:27:00,64.4,62.4,29.85,NNW,335,5.0,7.0,93,0.00,,,0.00,meteohub,2013-07-27 13:27:00,
2013-07-27 09:32:00,64.4,62.6,29.85,NW,322,2.0,7.0,94,0.00,,,0.00,meteohub,2013-07-27 13:32:00,
2013-07-27 09:38:00,64.6,62.4,29.85,NNW,329,6.0,7.0,93,0.00,,,0.00,meteohub,2013-07-27 13:38:00,
2013-07-27 09:43:00,64.6,62.4,29.85,NW,312,3.0,7.0,93,0.00,,,0.00,meteohub,2013-07-27 13:43:00,
2013-07-27 09:48:00,64.8,62.6,29.85,WNW,298,4.0,7.0,93,0.00,,,0.00,meteohub,2013-07-27 13:48:00,
2013-07-27 09:53:00,64.8,62.4,29.85,WNW,298,7.0,8.0,92,0.00,,,0.00,meteohub,2013-07-27 13:53:00,
2013-07-27 09:59:00,64.2,62.2,29.85,WNW,298,7.0,8.0,93,0.00,,,0.00,meteohub,2013-07-27 13:59:00,
2013-07-27 10:04:00,64.0,61.7,29.84,WNW,301,5.0,8.0,92,0.00,,,0.00,meteohub,2013-07-27 14:04:00,
2013-07-27 10:09:00,63.9,61.9,29.84,NW,305,4.0,8.0,93,0.00,,,0.00,meteohub,2013-07-27 14:09:00,
2013-07-27 10:14:00,63.9,61.9,29.84,WNW,301,7.0,12.0,93,0.00,,,0.00,meteohub,2013-07-27 14:14:00,
2013-07-27 10:20:00,64.0,62.1,29.84,WNW,301,6.0,12.0,93,0.00,,,0.00,meteohub,2013-07-27 14:20:00,
2013-07-27 10:23:00,64.2,62.2,29.84,NW,323,4.0,12.0,93,0.00,,,0.00,meteohub,2013-07-27 14:23:00,
2013-07-27 10:28:00,64.6,61.9,29.84,WNW,298,7.0,12.0,91,0.00,,,0.00,meteohub,2013-07-27 14:28:00,
2013-07-27 10:33:00,64.2,61.2,29.84,NW,310,3.0,10.0,90,0.00,,,0.00,meteohub,2013-07-27 14:33:00,
2013-07-27 10:39:00,64.2,61.2,29.84,NW,325,3.0,10.0,90,0.00,,,0.00,meteohub,2013-07-27 14:39:00,
2013-07-27 10:44:00,64.2,61.2,29.84,NW,314,2.0,10.0,90,0.00,,,0.00,meteohub,2013-07-27 14:44:00,
2013-07-27 10:49:00,64.6,61.5,29.84,NW,326,5.0,10.0,90,0.00,,,0.00,meteohub,2013-07-27 14:49:00,
2013-07-27 10:55:00,64.8,61.5,29.84,NW,324,4.0,8.0,89,0.00,,,0.00,meteohub,2013-07-27 14:55:00,
2013-07-27 11:00:00,64.9,61.7,29.84,NW,311,3.0,8.0,89,0.00,,,0.00,meteohub,2013-07-27 15:00:00,
2013-07-27 11:05:00,65.1,61.2,29.84,NW,314,6.0,8.0,87,0.00,,,0.00,meteohub,2013-07-27 15:05:00,
2013-07-27 11:11:00,65.7,61.7,29.84,WNW,292,5.0,9.0,87,0.00,,,0.00,meteohub,2013-07-27 15:11:00,
2013-07-27 11:16:00,66.2,62.2,29.83,NW,307,5.0,9.0,87,0.00,,,0.00,meteohub,2013-07-27 15:16:00,
2013-07-27 11:21:00,66.6,62.2,29.83,WNW,301,5.0,9.0,86,0.00,,,0.00,meteohub,2013-07-27 15:21:00,
2013-07-27 11:27:00,66.6,61.9,29.83,WNW,293,6.0,9.0,85,0.00,,,0.00,meteohub,2013-07-27 15:27:00,
2013-07-27 11:32:00,66.7,61.3,29.83,WNW,295,4.0,10.0,83,0.00,,,0.00,meteohub,2013-07-27 15:32:00,
2013-07-27 11:37:00,66.9,61.0,29.83,NW,323,6.0,10.0,81,0.00,,,0.00,meteohub,2013-07-27 15:37:00,
2013-07-27 11:42:00,66.7,61.0,29.83,WNW,301,6.0,10.0,82,0.00,,,0.00,meteohub,2013-07-27 15:42:00,
2013-07-27 11:47:00,66.7,61.0,29.83,NNW,335,5.0,10.0,82,0.00,,,0.00,meteohub,2013-07-27 15:47:00,
2013-07-27 11:52:00,66.9,60.6,29.82,West,280,2.0,11.0,80,0.00,,,0.00,meteohub,2013-07-27 15:52:00,
2013-07-27 11:57:00,67.5,60.4,29.82,NW,308,8.0,11.0,78,0.00,,,0.00,meteohub,2013-07-27 15:57:00,
2013-07-27 12:02:00,67.3,61.0,29.82,WNW,295,8.0,11.0,80,0.00,,,0.00,meteohub,2013-07-27 16:02:00,
2013-07-27 12:08:00,67.3,60.3,29.82,WNW,292,8.0,11.0,78,0.00,,,0.00,meteohub,2013-07-27 16:08:00,
2013-07-27 12:13:00,66.9,59.9,29.83,WNW,290,6.0,13.0,78,0.00,,,0.00,meteohub,2013-07-27 16:13:00,
2013-07-27 12:18:00,67.3,61.2,29.82,WNW,290,3.0,13.0,81,0.00,,,0.00,meteohub,2013-07-27 16:18:00,
2013-07-27 12:23:00,67.6,59.4,29.82,WNW,303,14.0,14.0,75,0.00,,,0.00,meteohub,2013-07-27 16:23:00,
2013-07-27 12:29:00,67.5,60.1,29.83,West,281,8.0,13.0,77,0.00,,,0.00,meteohub,2013-07-27 16:29:00,
2013-07-27 12:34:00,67.6,59.0,29.83,West,278,12.0,13.0,74,0.00,,,0.00,meteohub,2013-07-27 16:34:00,
2013-07-27 12:39:00,67.6,59.4,29.83,WNW,290,6.0,17.0,75,0.00,,,0.00,meteohub,2013-07-27 16:39:00,
2013-07-27 12:45:00,68.0,58.6,29.83,NW,319,9.0,17.0,72,0.00,,,0.00,meteohub,2013-07-27 16:45:00,
2013-07-27 12:50:00,67.8,59.5,29.83,NW,314,7.0,17.0,75,0.00,,,0.00,meteohub,2013-07-27 16:50:00,
2013-07-27 12:55:00,67.8,58.8,29.83,WNW,295,10.0,17.0,73,0.00,,,0.00,meteohub,2013-07-27 16:55:00,
2013-07-27 13:00:00,67.8,58.8,29.83,West,272,9.0,17.0,73,0.00,,,0.00,meteohub,2013-07-27 17:00:00,
2013-07-27 13:06:00,67.5,58.8,29.83,West,267,8.0,15.0,74,0.00,,,0.00,meteohub,2013-07-27 17:06:00,
2013-07-27 13:12:00,67.1,58.8,29.83,WNW,297,11.0,15.0,75,0.00,,,0.00,meteohub,2013-07-27 17:12:00,
2013-07-27 13:17:00,67.5,59.2,29.83,WSW,253,9.0,15.0,75,0.00,,,0.00,meteohub,2013-07-27 17:17:00,
2013-07-27 13:22:00,67.1,58.8,29.83,West,281,15.0,16.0,75,0.00,,,0.00,meteohub,2013-07-27 17:22:00,
2013-07-27 13:27:00,66.7,59.0,29.83,West,270,8.0,16.0,76,0.00,,,0.00,meteohub,2013-07-27 17:27:00,
2013-07-27 13:32:00,66.9,59.5,29.83,WNW,293,8.0,16.0,77,0.00,,,0.00,meteohub,2013-07-27 17:32:00,
2013-07-27 13:38:00,66.7,59.4,29.83,WNW,295,8.0,16.0,77,0.00,,,0.00,meteohub,2013-07-27 17:38:00,
2013-07-27 13:43:00,66.9,59.5,29.83,NNW,328,8.0,16.0,77,0.00,,,0.00,meteohub,2013-07-27 17:43:00,
2013-07-27 13:48:00,67.1,58.8,29.82,WNW,290,8.0,16.0,75,0.00,,,0.00,meteohub,2013-07-27 17:48:00,
2013-07-27 13:53:00,66.9,58.3,29.83,WNW,293,10.0,16.0,74,0.00,,,0.00,meteohub,2013-07-27 17:53:00,
2013-07-27 13:59:00,66.6,58.5,29.83,WNW,284,7.0,16.0,75,0.00,,,0.00,meteohub,2013-07-27 17:59:00,
2013-07-27 14:04:00,66.4,58.6,29.83,WNW,302,10.0,15.0,76,0.00,,,0.00,meteohub,2013-07-27 18:04:00,
2013-07-27 14:09:00,65.8,57.7,29.83,NW,311,11.0,15.0,75,0.00,,,0.00,meteohub,2013-07-27 18:09:00,
2013-07-27 14:15:00,65.8,58.5,29.83,WNW,293,9.0,15.0,77,0.00,,,0.00,meteohub,2013-07-27 18:15:00,
2013-07-27 14:20:00,65.1,57.7,29.83,WNW,290,6.0,17.0,77,0.00,,,0.00,meteohub,2013-07-27 18:20:00,
2013-07-27 14:25:00,64.9,57.6,29.83,WNW,287,9.0,17.0,77,0.00,,,0.00,meteohub,2013-07-27 18:25:00,
2013-07-27 14:31:00,64.6,57.6,29.83,West,281,16.0,17.0,78,0.00,,,0.00,meteohub,2013-07-27 18:31:00,
2013-07-27 14:36:00,64.4,57.7,29.83,NW,314,17.0,17.0,79,0.00,,,0.00,meteohub,2013-07-27 18:36:00,
2013-07-27 14:41:00,64.0,57.0,29.83,West,278,11.0,19.0,78,0.00,,,0.00,meteohub,2013-07-27 18:41:00,
2013-07-27 14:47:00,63.9,56.8,29.83,WNW,301,10.0,19.0,78,0.00,,,0.00,meteohub,2013-07-27 18:47:00,
2013-07-27 14:52:00,64.0,57.0,29.84,WNW,290,10.0,19.0,78,0.00,,,0.00,meteohub,2013-07-27 18:52:00,
2013-07-27 14:57:00,63.9,56.8,29.84,NW,305,11.0,19.0,78,0.00,,,0.00,meteohub,2013-07-27 18:57:00,
2013-07-27 15:02:00,63.9,56.8,29.84,NW,316,7.0,17.0,78,0.00,,,0.00,meteohub,2013-07-27 19:02:00,
2013-07-27 15:07:00,63.3,56.3,29.84,WNW,298,15.0,17.0,78,0.00,,,0.00,meteohub,2013-07-27 19:07:00,
2013-07-27 15:12:00,63.0,55.9,29.84,NW,307,11.0,17.0,78,0.00,,,0.00,meteohub,2013-07-27 19:12:00,
2013-07-27 15:17:00,63.0,55.9,29.84,NW,323,8.0,17.0,78,0.00,,,0.00,meteohub,2013-07-27 19:17:00,
2013-07-27 15:22:00,63.0,55.9,29.84,NW,304,11.0,18.0,78,0.00,,,0.00,meteohub,2013-07-27 19:22:00,
2013-07-27 15:27:00,63.0,55.6,29.85,NW,309,16.0,18.0,77,0.00,,,0.00,meteohub,2013-07-27 19:27:00,
2013-07-27 15:33:00,62.8,56.1,29.85,NW,309,15.0,18.0,79,0.00,,,0.00,meteohub,2013-07-27 19:33:00,
2013-07-27 15:38:00,62.6,55.6,29.85,NW,310,8.0,18.0,78,0.00,,,0.00,meteohub,2013-07-27 19:38:00,
2013-07-27 15:43:00,63.0,56.3,29.85,WNW,298,9.0,18.0,79,0.00,,,0.00,meteohub,2013-07-27 19:43:00,
2013-07-27 15:48:00,63.3,55.9,29.85,NW,307,12.0,18.0,77,0.00,,,0.00,meteohub,2013-07-27 19:48:00,
2013-07-27 15:53:00,63.3,55.6,29.85,NW,314,11.0,18.0,76,0.00,,,0.00,meteohub,2013-07-27 19:53:00,
2013-07-27 15:59:00,63.1,55.8,29.85,West,269,15.0,20.0,77,0.00,,,0.00,meteohub,2013-07-27 19:59:00,
2013-07-27 16:04:00,62.4,55.4,29.85,WNW,295,11.0,20.0,78,0.00,,,0.00,meteohub,2013-07-27 20:04:00,
2013-07-27 16:09:00,62.1,55.4,29.85,West,270,9.0,20.0,79,0.00,,,0.00,meteohub,2013-07-27 20:09:00,
2013-07-27 16:14:00,62.2,55.2,29.85,WNW,295,10.0,20.0,78,0.00,,,0.00,meteohub,2013-07-27 20:14:00,
2013-07-27 16:20:00,62.1,55.0,29.85,West,274,9.0,20.0,78,0.00,,,0.00,meteohub,2013-07-27 20:20:00,
2013-07-27 16:25:00,61.9,54.3,29.86,WNW,295,8.0,20.0,76,0.00,,,0.00,meteohub,2013-07-27 20:25:00,
2013-07-27 16:30:00,61.9,54.7,29.86,NNW,335,14.0,20.0,77,0.00,,,0.00,meteohub,2013-07-27 20:30:00,
2013-07-27 16:35:00,61.5,54.3,29.86,WNW,293,11.0,20.0,77,0.00,,,0.00,meteohub,2013-07-27 20:35:00,
2013-07-27 16:41:00,61.5,54.0,29.86,WNW,284,10.0,18.0,76,0.00,,,0.00,meteohub,2013-07-27 20:41:00,
2013-07-27 16:46:00,61.3,54.1,29.85,WNW,283,8.0,18.0,77,0.00,,,0.00,meteohub,2013-07-27 20:46:00,
2013-07-27 16:51:00,61.7,54.5,29.85,WNW,301,9.0,18.0,77,0.00,,,0.00,meteohub,2013-07-27 20:51:00,
2013-07-27 16:56:00,61.7,53.8,29.85,NW,324,11.0,18.0,75,0.00,,,0.00,meteohub,2013-07-27 20:56:00,
2013-07-27 17:02:00,61.9,53.8,29.86,WNW,302,8.0,18.0,75,0.00,,,0.00,meteohub,2013-07-27 21:02:00,
2013-07-27 17:07:00,61.7,53.2,29.85,NW,312,9.0,18.0,74,0.00,,,0.00,meteohub,2013-07-27 21:07:00,
2013-07-27 17:12:00,61.7,52.9,29.85,WNW,298,14.0,18.0,73,0.00,,,0.00,meteohub,2013-07-27 21:12:00,
2013-07-27 17:17:00,61.5,52.7,29.85,WNW,295,6.0,18.0,73,0.00,,,0.00,meteohub,2013-07-27 21:17:00,
2013-07-27 17:22:00,61.5,53.2,29.85,WNW,290,14.0,20.0,74,0.00,,,0.00,meteohub,2013-07-27 21:22:00,
2013-07-27 17:27:00,61.3,52.7,29.85,NW,304,10.0,20.0,73,0.00,,,0.00,meteohub,2013-07-27 21:27:00,
2013-07-27 17:32:00,61.2,52.5,29.85,WNW,297,11.0,20.0,73,0.00,,,0.00,meteohub,2013-07-27 21:32:00,
2013-07-27 17:37:00,61.2,52.5,29.86,WSW,253,12.0,20.0,73,0.00,,,0.00,meteohub,2013-07-27 21:37:00,
2013-07-27 17:42:00,61.2,52.5,29.86,NW,304,9.0,18.0,73,0.00,,,0.00,meteohub,2013-07-27 21:42:00,
2013-07-27 17:48:00,61.2,52.9,29.86,WNW,292,14.0,18.0,74,0.00,,,0.00,meteohub,2013-07-27 21:48:00,
2013-07-27 17:53:00,60.6,52.7,29.86,West,278,7.0,18.0,75,0.00,,,0.00,meteohub,2013-07-27 21:53:00,
2013-07-27 17:58:00,60.6,52.3,29.86,NNW,334,14.0,18.0,74,0.00,,,0.00,meteohub,2013-07-27 21:58:00,
2013-07-27 18:04:00,60.3,52.3,29.86,WNW,298,13.0,16.0,75,0.00,,,0.00,meteohub,2013-07-27 22:04:00,
2013-07-27 18:09:00,59.9,52.3,29.86,WNW,295,8.0,16.0,76,0.00,,,0.00,meteohub,2013-07-27 22:09:00,
2013-07-27 18:14:00,59.7,52.2,29.86,WNW,292,10.0,16.0,76,0.00,,,0.00,meteohub,2013-07-27 22:14:00,
2013-07-27 18:20:00,59.7,52.2,29.86,WNW,303,11.0,16.0,76,0.00,,,0.00,meteohub,2013-07-27 22:20:00,
2013-07-27 18:25:00,59.7,52.2,29.86,WNW,293,4.0,12.0,76,0.00,,,0.00,meteohub,2013-07-27 22:25:00,
2013-07-27 18:30:00,59.7,51.8,29.86,WNW,283,7.0,12.0,75,0.00,,,0.00,meteohub,2013-07-27 22:30:00,
2013-07-27 18:35:00,59.5,51.6,29.86,WNW,292,8.0,12.0,75,0.00,,,0.00,meteohub,2013-07-27 22:35:00,
2013-07-27 18:41:00,59.4,52.2,29.86,WNW,287,5.0,12.0,77,0.00,,,0.00,meteohub,2013-07-27 22:41:00,
2013-07-27 18:47:00,59.4,51.8,29.87,WNW,293,5.0,12.0,76,0.00,,,0.00,meteohub,2013-07-27 22:47:00,
2013-07-27 18:52:00,59.2,51.6,29.87,WNW,290,5.0,14.0,76,0.00,,,0.00,meteohub,2013-07-27 22:52:00,
2013-07-27 18:57:00,59.2,52.0,29.87,WNW,295,5.0,14.0,77,0.00,,,0.00,meteohub,2013-07-27 22:57:00,
2013-07-27 19:02:00,58.8,52.0,29.87,WNW,298,6.0,14.0,78,0.00,,,0.00,meteohub,2013-07-27 23:02:00,
2013-07-27 19:07:00,58.5,52.0,29.87,NW,309,11.0,14.0,79,0.00,,,0.00,meteohub,2013-07-27 23:07:00,
2013-07-27 19:12:00,57.9,52.2,29.87,WNW,295,9.0,-999.0,81,0.00,,,0.00,meteohub,2013-07-27 23:12:00,
2013-07-27 19:17:00,57.7,52.0,29.87,WNW,301,6.0,15.0,81,0.00,,,0.00,meteohub,2013-07-27 23:17:00,
2013-07-27 19:22:00,57.6,51.8,29.87,NW,309,5.0,15.0,81,0.00,,,0.23,meteohub,2013-07-27 23:22:00,
2013-07-27 19:28:00,57.6,51.8,29.88,WNW,292,12.0,15.0,81,0.00,,,0.00,meteohub,2013-07-27 23:28:00,
2013-07-27 19:33:00,57.4,51.6,29.88,NW,307,7.0,13.0,81,0.00,,,0.00,meteohub,2013-07-27 23:33:00,
2013-07-27 19:38:00,57.0,50.9,29.88,WNW,301,8.0,13.0,80,0.00,,,0.00,meteohub,2013-07-27 23:38:00,
2013-07-27 19:43:00,56.8,51.1,29.88,WNW,298,7.0,13.0,81,0.00,,,0.00,meteohub,2013-07-27 23:43:00,
2013-07-27 19:48:00,56.7,51.3,29.89,WNW,298,5.0,13.0,82,0.00,,,0.00,meteohub,2013-07-27 23:48:00,
2013-07-27 19:53:00,56.7,51.3,29.89,West,274,8.0,12.0,82,0.00,,,0.00,meteohub,2013-07-27 23:53:00,
2013-07-27 19:59:00,56.7,51.3,29.89,WNW,295,6.0,12.0,82,0.00,,,0.00,meteohub,2013-07-27 23:59:00,
2013-07-27 20:04:00,56.7,51.3,29.89,NW,307,4.0,12.0,82,0.00,,,0.00,meteohub,2013-07-28 00:04:00,
2013-07-27 20:09:00,56.7,51.3,29.89,NW,318,6.0,12.0,82,0.00,,,0.00,meteohub,2013-07-28 00:09:00,
2013-07-27 20:14:00,56.7,51.3,29.88,WNW,298,3.0,10.0,82,0.00,,,0.00,meteohub,2013-07-28 00:14:00,
2013-07-27 20:19:00,56.7,51.3,29.88,WNW,298,5.0,10.0,82,0.00,,,0.00,meteohub,2013-07-28 00:19:00,
2013-07-27 20:25:00,56.7,51.3,29.88,WNW,303,6.0,10.0,82,0.00,,,0.00,meteohub,2013-07-28 00:25:00,
2013-07-27 20:30:00,56.7,51.3,29.88,NW,305,4.0,10.0,82,0.00,,,0.00,meteohub,2013-07-28 00:30:00,
2013-07-27 20:35:00,56.7,51.3,29.88,NW,307,5.0,7.0,82,0.00,,,0.00,meteohub,2013-07-28 00:35:00,
2013-07-27 20:41:00,56.7,51.3,29.88,NW,309,4.0,7.0,82,0.00,,,0.00,meteohub,2013-07-28 00:41:00,
2013-07-27 20:47:00,56.7,51.3,29.88,WNW,292,2.0,7.0,82,0.00,,,0.00,meteohub,2013-07-28 00:47:00,
2013-07-27 20:52:00,56.7,51.3,29.88,WNW,295,3.0,6.0,82,0.00,,,0.00,meteohub,2013-07-28 00:52:00,
2013-07-27 20:57:00,56.7,51.3,29.88,WNW,290,2.0,6.0,82,0.00,,,0.00,meteohub,2013-07-28 00:57:00,
2013-07-27 21:02:00,56.7,51.3,29.88,WNW,283,1.0,6.0,82,0.00,,,0.00,meteohub,2013-07-28 01:02:00,
2013-07-27 21:07:00,56.7,51.6,29.88,West,278,3.0,6.0,83,0.00,,,0.00,meteohub,2013-07-28 01:07:00,
2013-07-27 21:12:00,56.8,51.4,29.88,West,269,1.0,4.0,82,0.00,,,0.00,meteohub,2013-07-28 01:12:00,
2013-07-27 21:18:00,56.8,51.4,29.88,West,278,1.0,4.0,82,0.00,,,0.00,meteohub,2013-07-28 01:18:00,
2013-07-27 21:23:00,56.8,51.4,29.88,WNW,283,1.0,4.0,82,0.00,,,0.00,meteohub,2013-07-28 01:23:00,
2013-07-27 21:28:00,56.8,51.4,29.89,WSW,242,2.0,4.0,82,0.00,,,0.00,meteohub,2013-07-28 01:28:00,
2013-07-27 21:34:00,56.8,51.8,29.88,WSW,239,1.0,3.0,83,0.00,,,0.00,meteohub,2013-07-28 01:34:00,
2013-07-27 21:39:00,56.8,51.8,29.88,SW,215,1.0,3.0,83,0.00,,,0.00,meteohub,2013-07-28 01:39:00,
2013-07-27 21:44:00,56.8,51.8,29.89,WSW,250,1.0,3.0,83,0.00,,,0.00,meteohub,2013-07-28 01:44:00,
2013-07-27 21:49:00,56.8,52.0,29.88,WSW,239,1.0,3.0,84,0.00,,,0.00,meteohub,2013-07-28 01:49:00,
2013-07-27 21:55:00,56.8,52.0,29.88,WSW,242,0.0,3.0,84,0.00,,,0.00,meteohub,2013-07-28 01:55:00,
2013-07-27 22:00:00,56.8,51.8,29.88,West,260,1.0,3.0,83,0.00,,,0.00,meteohub,2013-07-28 02:00:00,
2013-07-27 22:05:00,56.8,51.8,29.88,SW,231,1.0,3.0,83,0.00,,,0.00,meteohub,2013-07-28 02:05:00,
2013-07-27 22:10:00,57.0,52.0,29.88,West,274,1.0,3.0,83,0.00,,,0.00,meteohub,2013-07-28 02:10:00,
2013-07-27 22:16:00,56.8,52.0,29.88,West,271,1.0,2.0,84,0.00,,,0.00,meteohub,2013-07-28 02:16:00,
2013-07-27 22:21:00,56.8,52.0,29.88,WSW,245,1.0,2.0,84,0.00,,,0.00,meteohub,2013-07-28 02:21:00,
2013-07-27 22:27:00,56.8,52.0,29.88,WSW,245,2.0,2.0,84,0.00,,,0.00,meteohub,2013-07-28 02:27:00,
2013-07-27 22:32:00,56.7,52.2,29.88,WSW,248,1.0,2.0,85,0.00,,,0.00,meteohub,2013-07-28 02:32:00,
2013-07-27 22:37:00,56.7,52.2,29.88,WSW,239,1.0,2.0,85,0.00,,,0.00,meteohub,2013-07-28 02:37:00,
2013-07-27 22:42:00,56.7,52.2,29.88,SW,232,3.0,3.0,85,0.00,,,0.00,meteohub,2013-07-28 02:42:00,
2013-07-27 22:48:00,56.7,52.2,29.88,SW,228,2.0,2.0,85,0.00,,,0.00,meteohub,2013-07-28 02:48:00,
2013-07-27 22:53:00,56.7,52.2,29.88,SW,221,1.0,4.0,85,0.00,,,0.00,meteohub,2013-07-28 02:53:00,
2013-07-27 22:58:00,56.7,52.2,29.88,SW,222,2.0,4.0,85,0.00,,,0.00,meteohub,2013-07-28 02:58:00,
2013-07-27 23:03:00,56.7,52.2,29.87,WSW,239,2.0,4.0,85,0.00,,,0.00,meteohub,2013-07-28 03:03:00,
2013-07-27 23:09:00,56.7,51.8,29.88,South,186,1.0,3.0,84,0.00,,,0.00,meteohub,2013-07-28 03:09:00,
2013-07-27 23:14:00,56.7,52.2,29.87,SW,225,1.0,3.0,85,0.00,,,0.00,meteohub,2013-07-28 03:14:00,
2013-07-27 23:19:00,56.7,52.2,29.88,SW,218,3.0,3.0,85,0.00,,,0.00,meteohub,2013-07-28 03:19:00,
2013-07-27 23:24:00,56.5,52.7,29.87,SSW,208,3.0,3.0,87,0.00,,,0.00,meteohub,2013-07-28 03:24:00,
2013-07-27 23:30:00,56.3,52.5,29.87,South,188,5.0,5.0,87,0.00,,,0.00,meteohub,2013-07-28 03:30:00,
2013-07-27 23:35:00,56.1,52.3,29.87,SW,219,2.0,4.0,87,0.00,,,0.00,meteohub,2013-07-28 03:35:00,
2013-07-27 23:40:00,56.1,52.7,29.87,SSW,193,2.0,4.0,88,0.00,,,0.00,meteohub,2013-07-28 03:40:00,
2013-07-27 23:46:00,56.1,52.7,29.88,SSW,211,3.0,6.0,88,0.00,,,0.00,meteohub,2013-07-28 03:46:00,
2013-07-27 23:51:00,56.1,52.7,29.88,SSW,208,3.0,6.0,88,0.00,,,0.00,meteohub,2013-07-28 03:51:00,
2013-07-27 23:56:00,56.1,52.7,29.88,SSW,197,5.0,6.0,88,0.00,,,0.00,meteohub,2013-07-28 03:56:00,